sensor_id;sensor_type;location;lat;lon;timestamp;pressure;altitude;pressure_sealevel;temperature;humidity
3590;BME280;1809;48.470;9.226;2022-07-30T00:01:29;96898.69;;;17.90;100.00
3590;BME280;1809;48.470;9.226;2022-07-30T00:03:55;96907.81;;;17.86;100.00
3590;BME280;1809;48.470;9.226;2022-07-30T00:06:20;96903.06;;;17.83;100.00
3590;BME280;1809;48.470;9.226;2022-07-30T00:08:45;96911.50;;;17.81;100.00
3590;BME280;1809;48.470;9.226;2022-07-30T00:11:11;96920.09;;;17.83;100.00
3590;BME280;1809;48.470;9.226;2022-07-30T00:13:36;96919.41;;;17.74;100.00
3590;BME280;1809;48.470;9.226;2022-07-30T00:16:02;96907.31;;;17.71;100.00
3590;BME280;1809;48.470;9.226;2022-07-30T00:18:28;96915.53;;;17.63;100.00
3590;BME280;1809;48.470;9.226;2022-07-30T00:20:53;96910.34;;;17.58;100.00
3590;BME280;1809;48.470;9.226;2022-07-30T00:23:18;96915.47;;;17.51;100.00
3590;BME280;1809;48.470;9.226;2022-07-30T00:25:44;96918.03;;;17.47;100.00
3590;BME280;1809;48.470;9.226;2022-07-30T00:28:09;96905.06;;;17.41;100.00
3590;BME280;1809;48.470;9.226;2022-07-30T00:30:35;96911.47;;;17.36;100.00
3590;BME280;1809;48.470;9.226;2022-07-30T00:33:00;96917.69;;;17.37;100.00
3590;BME280;1809;48.470;9.226;2022-07-30T00:35:26;96921.94;;;17.38;100.00
3590;BME280;1809;48.470;9.226;2022-07-30T00:37:51;96912.97;;;17.46;100.00
3590;BME280;1809;48.470;9.226;2022-07-30T00:40:17;96917.69;;;17.37;100.00
3590;BME280;1809;48.470;9.226;2022-07-30T00:42:45;96914.28;;;17.28;100.00
3590;BME280;1809;48.470;9.226;2022-07-30T00:45:12;96926.66;;;17.29;100.00
3590;BME280;1809;48.470;9.226;2022-07-30T00:47:37;96922.69;;;17.26;100.00
3590;BME280;1809;48.470;9.226;2022-07-30T00:50:05;96928.91;;;17.27;100.00
3590;BME280;1809;48.470;9.226;2022-07-30T00:52:32;96927.59;;;17.12;100.00
3590;BME280;1809;48.470;9.226;2022-07-30T00:54:58;96926.28;;;17.18;100.00
3590;BME280;1809;48.470;9.226;2022-07-30T00:57:24;96924.53;;;17.13;100.00
3590;BME280;1809;48.470;9.226;2022-07-30T00:59:49;96926.66;;;17.08;100.00
3590;BME280;1809;48.470;9.226;2022-07-30T01:02:15;96934.19;;;17.02;100.00
3590;BME280;1809;48.470;9.226;2022-07-30T01:04:40;96932.59;;;17.01;100.00
3590;BME280;1809;48.470;9.226;2022-07-30T01:07:06;96934.84;;;16.99;100.00
3590;BME280;1809;48.470;9.226;2022-07-30T01:09:31;96938.22;;;16.96;100.00
3590;BME280;1809;48.470;9.226;2022-07-30T01:11:57;96949.91;;;17.00;100.00
3590;BME280;1809;48.470;9.226;2022-07-30T01:14:22;96938.72;;;17.10;100.00
3590;BME280;1809;48.470;9.226;2022-07-30T01:16:48;96937.47;;;17.08;100.00
3590;BME280;1809;48.470;9.226;2022-07-30T01:19:26;96951.97;;;17.03;100.00
3590;BME280;1809;48.470;9.226;2022-07-30T01:22:34;96944.34;;;17.05;100.00
3590;BME280;1809;48.470;9.226;2022-07-30T01:28:12;96942.81;;;17.37;100.00
3590;BME280;1809;48.470;9.226;2022-07-30T01:30:42;96943.72;;;17.62;100.00
3590;BME280;1809;48.470;9.226;2022-07-30T01:33:11;96947.19;;;17.62;100.00
3590;BME280;1809;48.470;9.226;2022-07-30T01:35:39;96950.91;;;17.58;100.00
3590;BME280;1809;48.470;9.226;2022-07-30T01:38:05;96938.22;;;17.50;100.00
3590;BME280;1809;48.470;9.226;2022-07-30T01:40:31;96948.72;;;17.51;100.00
3590;BME280;1809;48.470;9.226;2022-07-30T01:43:00;96943.53;;;17.46;100.00
3590;BME280;1809;48.470;9.226;2022-07-30T01:45:28;96949.91;;;17.42;100.00
3590;BME280;1809;48.470;9.226;2022-07-30T01:47:58;96943.25;;;17.39;100.00
3590;BME280;1809;48.470;9.226;2022-07-30T01:50:26;96951.81;;;17.41;100.00
3590;BME280;1809;48.470;9.226;2022-07-30T01:52:54;96952.75;;;17.45;100.00
3590;BME280;1809;48.470;9.226;2022-07-30T01:55:39;96955.78;;;17.44;100.00
3590;BME280;1809;48.470;9.226;2022-07-30T01:58:06;96955.66;;;17.40;100.00
3590;BME280;1809;48.470;9.226;2022-07-30T02:00:37;96956.78;;;17.39;100.00
3590;BME280;1809;48.470;9.226;2022-07-30T02:03:04;96966.34;;;17.37;100.00
3590;BME280;1809;48.470;9.226;2022-07-30T02:05:31;96958.41;;;17.32;100.00
3590;BME280;1809;48.470;9.226;2022-07-30T02:08:18;96961.59;;;17.34;100.00
3590;BME280;1809;48.470;9.226;2022-07-30T02:10:57;96964.34;;;17.25;100.00
3590;BME280;1809;48.470;9.226;2022-07-30T02:13:27;96964.44;;;17.16;100.00
3590;BME280;1809;48.470;9.226;2022-07-30T02:15:58;96960.69;;;17.09;100.00
3590;BME280;1809;48.470;9.226;2022-07-30T02:18:30;96968.44;;;17.10;100.00
3590;BME280;1809;48.470;9.226;2022-07-30T02:21:00;96960.56;;;17.05;100.00
3590;BME280;1809;48.470;9.226;2022-07-30T02:23:28;96962.78;;;17.03;100.00
3590;BME280;1809;48.470;9.226;2022-07-30T02:25:56;96960.72;;;17.00;100.00
3590;BME280;1809;48.470;9.226;2022-07-30T02:28:23;96956.31;;;16.96;100.00
3590;BME280;1809;48.470;9.226;2022-07-30T02:30:57;96951.22;;;16.94;100.00
3590;BME280;1809;48.470;9.226;2022-07-30T02:33:28;96954.41;;;16.96;100.00
3590;BME280;1809;48.470;9.226;2022-07-30T02:35:55;96955.91;;;16.85;100.00
3590;BME280;1809;48.470;9.226;2022-07-30T02:38:23;96956.38;;;16.87;100.00
3590;BME280;1809;48.470;9.226;2022-07-30T02:40:52;96951.97;;;16.83;100.00
3590;BME280;1809;48.470;9.226;2022-07-30T02:43:18;96951.81;;;16.79;100.00
3590;BME280;1809;48.470;9.226;2022-07-30T02:45:46;96964.59;;;16.70;100.00
3590;BME280;1809;48.470;9.226;2022-07-30T02:48:13;96961.44;;;16.68;100.00
3590;BME280;1809;48.470;9.226;2022-07-30T02:50:39;96962.91;;;16.57;100.00
3590;BME280;1809;48.470;9.226;2022-07-30T02:53:09;96964.03;;;16.47;100.00
3590;BME280;1809;48.470;9.226;2022-07-30T02:55:35;96952.28;;;16.52;100.00
3590;BME280;1809;48.470;9.226;2022-07-30T02:58:05;96966.72;;;16.47;100.00
3590;BME280;1809;48.470;9.226;2022-07-30T03:00:31;96954.22;;;16.43;100.00
3590;BME280;1809;48.470;9.226;2022-07-30T03:02:58;96965.19;;;16.38;100.00
3590;BME280;1809;48.470;9.226;2022-07-30T03:05:24;96962.97;;;16.40;100.00
3590;BME280;1809;48.470;9.226;2022-07-30T03:07:52;96960.91;;;16.37;100.00
3590;BME280;1809;48.470;9.226;2022-07-30T03:10:19;96961.72;;;16.37;100.00
3590;BME280;1809;48.470;9.226;2022-07-30T03:12:45;96960.16;;;16.28;100.00
3590;BME280;1809;48.470;9.226;2022-07-30T03:15:11;96962.69;;;16.33;100.00
3590;BME280;1809;48.470;9.226;2022-07-30T03:17:41;96966.22;;;16.25;100.00
3590;BME280;1809;48.470;9.226;2022-07-30T03:20:09;96965.91;;;16.18;100.00
3590;BME280;1809;48.470;9.226;2022-07-30T03:22:39;96965.16;;;16.08;100.00
3590;BME280;1809;48.470;9.226;2022-07-30T03:25:06;96966.44;;;16.02;100.00
3590;BME280;1809;48.470;9.226;2022-07-30T03:27:35;96971.53;;;15.95;100.00
3590;BME280;1809;48.470;9.226;2022-07-30T03:30:01;96976.63;;;15.88;100.00
3590;BME280;1809;48.470;9.226;2022-07-30T03:32:27;96977.28;;;15.85;100.00
3590;BME280;1809;48.470;9.226;2022-07-30T03:34:53;96981.75;;;15.81;100.00
3590;BME280;1809;48.470;9.226;2022-07-30T03:37:19;96979.03;;;15.81;100.00
3590;BME280;1809;48.470;9.226;2022-07-30T03:39:44;96980.78;;;15.77;100.00
3590;BME280;1809;48.470;9.226;2022-07-30T03:42:11;96984.09;;;15.83;100.00
3590;BME280;1809;48.470;9.226;2022-07-30T03:44:37;96986.81;;;15.74;100.00
3590;BME280;1809;48.470;9.226;2022-07-30T03:47:04;96994.72;;;15.79;100.00
3590;BME280;1809;48.470;9.226;2022-07-30T03:49:32;97010.13;;;15.70;100.00
3590;BME280;1809;48.470;9.226;2022-07-30T03:51:57;97007.63;;;15.65;100.00
3590;BME280;1809;48.470;9.226;2022-07-30T03:54:23;97008.25;;;15.62;100.00
3590;BME280;1809;48.470;9.226;2022-07-30T03:56:49;97007.13;;;15.54;100.00
3590;BME280;1809;48.470;9.226;2022-07-30T03:59:15;97005.88;;;15.52;100.00
3590;BME280;1809;48.470;9.226;2022-07-30T04:01:41;97012.06;;;15.52;100.00
3590;BME280;1809;48.470;9.226;2022-07-30T04:04:07;97016.19;;;15.58;100.00
3590;BME280;1809;48.470;9.226;2022-07-30T04:06:34;97017.59;;;15.47;100.00
3590;BME280;1809;48.470;9.226;2022-07-30T04:09:10;97018.69;;;15.46;100.00
3590;BME280;1809;48.470;9.226;2022-07-30T04:11:36;97018.69;;;15.46;100.00
3590;BME280;1809;48.470;9.226;2022-07-30T04:14:02;97026.47;;;15.48;100.00
3590;BME280;1809;48.470;9.226;2022-07-30T04:18:57;97032.19;;;15.64;100.00
3590;BME280;1809;48.470;9.226;2022-07-30T04:21:24;97038.06;;;15.57;100.00
3590;BME280;1809;48.470;9.226;2022-07-30T04:23:52;97037.75;;;15.58;100.00
3590;BME280;1809;48.470;9.226;2022-07-30T04:26:19;97039.34;;;15.59;100.00
3590;BME280;1809;48.470;9.226;2022-07-30T04:28:45;97037.88;;;15.79;100.00
3590;BME280;1809;48.470;9.226;2022-07-30T04:31:11;97046.03;;;16.26;100.00
3590;BME280;1809;48.470;9.226;2022-07-30T04:33:37;97044.25;;;16.93;100.00
3590;BME280;1809;48.470;9.226;2022-07-30T04:36:08;97051.03;;;17.70;100.00
3590;BME280;1809;48.470;9.226;2022-07-30T04:38:34;97053.84;;;17.94;100.00
3590;BME280;1809;48.470;9.226;2022-07-30T04:41:00;97055.97;;;18.21;100.00
3590;BME280;1809;48.470;9.226;2022-07-30T04:43:26;97062.44;;;19.10;100.00
3590;BME280;1809;48.470;9.226;2022-07-30T04:45:51;97069.56;;;19.79;100.00
3590;BME280;1809;48.470;9.226;2022-07-30T04:48:16;97062.81;;;20.28;100.00
3590;BME280;1809;48.470;9.226;2022-07-30T04:50:44;97074.41;;;20.13;100.00
3590;BME280;1809;48.470;9.226;2022-07-30T04:53:11;97082.09;;;19.83;100.00
3590;BME280;1809;48.470;9.226;2022-07-30T04:55:40;97089.13;;;20.12;100.00
3590;BME280;1809;48.470;9.226;2022-07-30T04:58:08;97087.66;;;20.74;100.00
3590;BME280;1809;48.470;9.226;2022-07-30T05:00:35;97093.09;;;21.36;100.00
3590;BME280;1809;48.470;9.226;2022-07-30T05:03:03;97092.53;;;22.16;100.00
3590;BME280;1809;48.470;9.226;2022-07-30T05:05:30;97096.16;;;22.85;100.00
3590;BME280;1809;48.470;9.226;2022-07-30T05:07:58;97100.28;;;23.47;100.00
3590;BME280;1809;48.470;9.226;2022-07-30T05:10:24;97095.22;;;24.05;100.00
3590;BME280;1809;48.470;9.226;2022-07-30T05:12:49;97095.69;;;24.40;100.00
3590;BME280;1809;48.470;9.226;2022-07-30T05:15:15;97087.88;;;24.09;100.00
3590;BME280;1809;48.470;9.226;2022-07-30T05:17:40;97093.78;;;24.81;100.00
3590;BME280;1809;48.470;9.226;2022-07-30T05:20:06;97093.19;;;25.56;100.00
3590;BME280;1809;48.470;9.226;2022-07-30T05:22:31;97102.94;;;26.15;100.00
3590;BME280;1809;48.470;9.226;2022-07-30T05:24:57;97104.66;;;26.62;100.00
3590;BME280;1809;48.470;9.226;2022-07-30T05:27:22;97103.97;;;27.33;100.00
3590;BME280;1809;48.470;9.226;2022-07-30T05:29:48;97101.59;;;26.82;100.00
3590;BME280;1809;48.470;9.226;2022-07-30T05:32:13;97101.59;;;26.92;100.00
3590;BME280;1809;48.470;9.226;2022-07-30T05:34:39;97106.31;;;27.09;100.00
3590;BME280;1809;48.470;9.226;2022-07-30T05:37:04;97113.31;;;27.99;100.00
3590;BME280;1809;48.470;9.226;2022-07-30T05:39:30;97112.63;;;28.71;100.00
3590;BME280;1809;48.470;9.226;2022-07-30T05:41:55;97108.19;;;28.88;100.00
3590;BME280;1809;48.470;9.226;2022-07-30T05:44:21;97116.59;;;28.59;100.00
3590;BME280;1809;48.470;9.226;2022-07-30T05:46:46;97112.00;;;29.08;100.00
3590;BME280;1809;48.470;9.226;2022-07-30T05:49:12;97111.84;;;28.70;100.00
3590;BME280;1809;48.470;9.226;2022-07-30T05:51:37;97107.63;;;29.14;100.00
3590;BME280;1809;48.470;9.226;2022-07-30T05:54:03;97113.72;;;29.83;100.00
3590;BME280;1809;48.470;9.226;2022-07-30T05:56:28;97116.66;;;30.03;100.00
3590;BME280;1809;48.470;9.226;2022-07-30T05:58:54;97120.56;;;30.06;100.00
3590;BME280;1809;48.470;9.226;2022-07-30T06:01:19;97123.56;;;29.84;100.00
3590;BME280;1809;48.470;9.226;2022-07-30T06:03:45;97125.06;;;30.60;100.00
3590;BME280;1809;48.470;9.226;2022-07-30T06:06:11;97124.63;;;31.19;100.00
3590;BME280;1809;48.470;9.226;2022-07-30T06:08:37;97125.41;;;30.62;100.00
3590;BME280;1809;48.470;9.226;2022-07-30T06:11:03;97128.88;;;31.50;96.62
3590;BME280;1809;48.470;9.226;2022-07-30T06:13:28;97135.38;;;31.83;92.06
3590;BME280;1809;48.470;9.226;2022-07-30T06:15:54;97131.94;;;31.79;89.25
3590;BME280;1809;48.470;9.226;2022-07-30T06:18:20;97144.13;;;31.81;87.36
3590;BME280;1809;48.470;9.226;2022-07-30T06:20:45;97134.16;;;32.07;76.94
3590;BME280;1809;48.470;9.226;2022-07-30T06:23:11;97129.72;;;31.20;83.09
3590;BME280;1809;48.470;9.226;2022-07-30T06:25:37;97127.44;;;30.88;90.14
3590;BME280;1809;48.470;9.226;2022-07-30T06:28:03;97128.22;;;31.39;89.92
3590;BME280;1809;48.470;9.226;2022-07-30T06:30:28;97131.78;;;30.25;94.60
3590;BME280;1809;48.470;9.226;2022-07-30T06:32:54;97132.97;;;30.58;92.36
3590;BME280;1809;48.470;9.226;2022-07-30T06:35:20;97135.16;;;30.40;89.50
3590;BME280;1809;48.470;9.226;2022-07-30T06:37:45;97131.69;;;30.66;87.83
3590;BME280;1809;48.470;9.226;2022-07-30T06:40:11;97126.44;;;29.26;95.09
3590;BME280;1809;48.470;9.226;2022-07-30T06:42:37;97137.94;;;30.03;95.70
3590;BME280;1809;48.470;9.226;2022-07-30T06:45:03;97131.38;;;30.23;88.72
3590;BME280;1809;48.470;9.226;2022-07-30T06:47:29;97131.63;;;30.36;88.57
3590;BME280;1809;48.470;9.226;2022-07-30T06:49:56;97127.66;;;30.71;87.02
3590;BME280;1809;48.470;9.226;2022-07-30T06:52:22;97133.16;;;30.44;85.85
3590;BME280;1809;48.470;9.226;2022-07-30T06:54:47;97137.84;;;30.47;89.04
3590;BME280;1809;48.470;9.226;2022-07-30T06:57:14;97134.53;;;30.59;86.53
3590;BME280;1809;48.470;9.226;2022-07-30T06:59:40;97139.44;;;29.25;92.46
3590;BME280;1809;48.470;9.226;2022-07-30T07:02:05;97140.09;;;30.22;87.97
3590;BME280;1809;48.470;9.226;2022-07-30T07:04:31;97141.63;;;29.48;96.00
3590;BME280;1809;48.470;9.226;2022-07-30T07:06:57;97135.09;;;29.21;94.62
3590;BME280;1809;48.470;9.226;2022-07-30T07:09:25;97133.13;;;29.25;96.96
3590;BME280;1809;48.470;9.226;2022-07-30T07:11:51;97139.47;;;29.66;95.62
3590;BME280;1809;48.470;9.226;2022-07-30T07:14:16;97145.50;;;30.32;88.07
3590;BME280;1809;48.470;9.226;2022-07-30T07:16:42;97138.75;;;29.07;92.84
3590;BME280;1809;48.470;9.226;2022-07-30T07:19:11;97143.28;;;29.39;95.91
3590;BME280;1809;48.470;9.226;2022-07-30T07:21:36;97141.28;;;30.21;90.06
3590;BME280;1809;48.470;9.226;2022-07-30T07:24:02;97140.88;;;30.22;87.31
3590;BME280;1809;48.470;9.226;2022-07-30T07:26:30;97138.16;;;29.37;96.26
3590;BME280;1809;48.470;9.226;2022-07-30T07:28:55;97140.56;;;28.73;100.00
3590;BME280;1809;48.470;9.226;2022-07-30T07:31:21;97139.25;;;27.87;100.00
3590;BME280;1809;48.470;9.226;2022-07-30T07:33:47;97138.38;;;28.29;100.00
3590;BME280;1809;48.470;9.226;2022-07-30T07:36:13;97135.06;;;28.69;100.00
3590;BME280;1809;48.470;9.226;2022-07-30T07:38:39;97142.00;;;28.05;100.00
3590;BME280;1809;48.470;9.226;2022-07-30T07:41:05;97127.94;;;28.75;100.00
3590;BME280;1809;48.470;9.226;2022-07-30T07:43:31;97135.00;;;28.80;100.00
3590;BME280;1809;48.470;9.226;2022-07-30T07:45:56;97137.59;;;29.05;100.00
3590;BME280;1809;48.470;9.226;2022-07-30T07:48:22;97135.91;;;29.69;98.99
3590;BME280;1809;48.470;9.226;2022-07-30T07:50:48;97133.47;;;29.75;95.23
3590;BME280;1809;48.470;9.226;2022-07-30T07:53:14;97141.25;;;29.87;93.48
3590;BME280;1809;48.470;9.226;2022-07-30T07:55:40;97146.94;;;29.69;100.00
3590;BME280;1809;48.470;9.226;2022-07-30T07:58:05;97137.50;;;29.67;93.57
3590;BME280;1809;48.470;9.226;2022-07-30T08:00:31;97142.53;;;28.62;98.10
3590;BME280;1809;48.470;9.226;2022-07-30T08:02:57;97141.63;;;27.11;100.00
3590;BME280;1809;48.470;9.226;2022-07-30T08:05:23;97145.91;;;25.97;100.00
3590;BME280;1809;48.470;9.226;2022-07-30T08:07:49;97143.53;;;24.94;100.00
3590;BME280;1809;48.470;9.226;2022-07-30T08:10:14;97133.28;;;24.84;100.00
3590;BME280;1809;48.470;9.226;2022-07-30T08:12:41;97141.06;;;24.82;100.00
3590;BME280;1809;48.470;9.226;2022-07-30T08:15:07;97144.28;;;24.57;100.00
3590;BME280;1809;48.470;9.226;2022-07-30T08:17:39;97141.47;;;24.50;100.00
3590;BME280;1809;48.470;9.226;2022-07-30T08:20:05;97137.47;;;24.41;100.00
3590;BME280;1809;48.470;9.226;2022-07-30T08:22:31;97140.28;;;24.48;100.00
3590;BME280;1809;48.470;9.226;2022-07-30T08:24:56;97137.53;;;24.15;100.00
3590;BME280;1809;48.470;9.226;2022-07-30T08:27:22;97134.31;;;24.09;100.00
3590;BME280;1809;48.470;9.226;2022-07-30T08:29:48;97135.06;;;24.06;100.00
3590;BME280;1809;48.470;9.226;2022-07-30T08:32:13;97133.06;;;24.03;100.00
3590;BME280;1809;48.470;9.226;2022-07-30T08:34:39;97124.66;;;24.15;100.00
3590;BME280;1809;48.470;9.226;2022-07-30T08:37:04;97136.22;;;24.05;100.00
3590;BME280;1809;48.470;9.226;2022-07-30T08:39:33;97122.94;;;24.07;100.00
3590;BME280;1809;48.470;9.226;2022-07-30T08:41:59;97139.81;;;24.42;100.00
3590;BME280;1809;48.470;9.226;2022-07-30T08:44:27;97141.41;;;24.43;100.00
3590;BME280;1809;48.470;9.226;2022-07-30T08:46:55;97141.28;;;24.70;100.00
3590;BME280;1809;48.470;9.226;2022-07-30T08:49:22;97134.28;;;24.72;100.00
3590;BME280;1809;48.470;9.226;2022-07-30T08:51:49;97142.50;;;25.09;100.00
3590;BME280;1809;48.470;9.226;2022-07-30T08:54:15;97142.84;;;25.04;100.00
3590;BME280;1809;48.470;9.226;2022-07-30T08:56:43;97139.81;;;25.16;100.00
3590;BME280;1809;48.470;9.226;2022-07-30T08:59:09;97145.38;;;25.27;100.00
3590;BME280;1809;48.470;9.226;2022-07-30T09:01:35;97143.78;;;25.70;100.00
3590;BME280;1809;48.470;9.226;2022-07-30T09:04:01;97145.88;;;25.94;100.00
3590;BME280;1809;48.470;9.226;2022-07-30T09:06:27;97147.97;;;25.56;100.00
3590;BME280;1809;48.470;9.226;2022-07-30T09:08:53;97145.69;;;25.62;100.00
3590;BME280;1809;48.470;9.226;2022-07-30T09:11:19;97141.16;;;25.91;100.00
3590;BME280;1809;48.470;9.226;2022-07-30T09:13:45;97146.28;;;25.96;100.00
3590;BME280;1809;48.470;9.226;2022-07-30T09:16:24;97147.56;;;26.09;100.00
3590;BME280;1809;48.470;9.226;2022-07-30T09:18:52;97139.00;;;26.21;100.00
3590;BME280;1809;48.470;9.226;2022-07-30T09:21:20;97144.44;;;26.14;100.00
3590;BME280;1809;48.470;9.226;2022-07-30T09:24:01;97142.97;;;26.27;100.00
3590;BME280;1809;48.470;9.226;2022-07-30T09:26:31;97140.22;;;26.34;100.00
3590;BME280;1809;48.470;9.226;2022-07-30T09:29:17;97144.38;;;26.03;100.00
3590;BME280;1809;48.470;9.226;2022-07-30T09:32:04;97136.78;;;26.65;100.00
3590;BME280;1809;48.470;9.226;2022-07-30T09:37:06;97141.63;;;27.11;100.00
3590;BME280;1809;48.470;9.226;2022-07-30T09:39:41;97141.59;;;26.86;100.00
3590;BME280;1809;48.470;9.226;2022-07-30T09:42:22;97131.31;;;26.55;100.00
3590;BME280;1809;48.470;9.226;2022-07-30T09:44:49;97136.63;;;26.16;100.00
3590;BME280;1809;48.470;9.226;2022-07-30T09:47:36;97141.38;;;26.26;100.00
3590;BME280;1809;48.470;9.226;2022-07-30T09:52:31;97133.34;;;25.93;100.00
3590;BME280;1809;48.470;9.226;2022-07-30T09:54:57;97137.13;;;26.39;100.00
3590;BME280;1809;48.470;9.226;2022-07-30T09:57:25;97131.31;;;26.65;99.50
3590;BME280;1809;48.470;9.226;2022-07-30T09:59:51;97141.22;;;26.95;96.64
3590;BME280;1809;48.470;9.226;2022-07-30T10:02:17;97132.19;;;26.94;99.34
3590;BME280;1809;48.470;9.226;2022-07-30T10:04:43;97128.28;;;27.31;87.80
3590;BME280;1809;48.470;9.226;2022-07-30T10:07:20;97129.84;;;27.32;82.36
3590;BME280;1809;48.470;9.226;2022-07-30T10:09:47;97129.88;;;27.14;87.13
3590;BME280;1809;48.470;9.226;2022-07-30T10:12:13;97128.28;;;27.16;86.30
3590;BME280;1809;48.470;9.226;2022-07-30T10:14:45;97123.53;;;26.82;87.26
3590;BME280;1809;48.470;9.226;2022-07-30T10:17:10;97122.72;;;26.74;92.04
3590;BME280;1809;48.470;9.226;2022-07-30T10:19:36;97118.06;;;26.92;91.34
3590;BME280;1809;48.470;9.226;2022-07-30T10:22:03;97125.16;;;27.39;87.50
3590;BME280;1809;48.470;9.226;2022-07-30T10:24:29;97118.06;;;27.03;81.53
3590;BME280;1809;48.470;9.226;2022-07-30T10:26:56;97117.31;;;27.13;84.40
3590;BME280;1809;48.470;9.226;2022-07-30T10:29:22;97115.34;;;27.10;84.37
3590;BME280;1809;48.470;9.226;2022-07-30T10:31:49;97111.03;;;26.98;82.06
3590;BME280;1809;48.470;9.226;2022-07-30T10:34:18;97112.22;;;27.15;80.63
3590;BME280;1809;48.470;9.226;2022-07-30T10:36:47;97117.28;;;27.34;77.62
3590;BME280;1809;48.470;9.226;2022-07-30T10:39:17;97125.16;;;27.50;76.32
3590;BME280;1809;48.470;9.226;2022-07-30T10:42:23;97116.09;;;27.77;72.45
3590;BME280;1809;48.470;9.226;2022-07-30T10:45:18;97113.38;;;27.63;77.12
3590;BME280;1809;48.470;9.226;2022-07-30T10:47:48;97110.06;;;28.28;70.94
3590;BME280;1809;48.470;9.226;2022-07-30T10:50:19;97107.59;;;28.52;69.83
3590;BME280;1809;48.470;9.226;2022-07-30T10:52:50;97110.00;;;28.43;63.88
3590;BME280;1809;48.470;9.226;2022-07-30T10:55:27;97100.63;;;28.29;64.48
3590;BME280;1809;48.470;9.226;2022-07-30T10:58:08;97099.13;;;28.04;68.63
3590;BME280;1809;48.470;9.226;2022-07-30T11:03:25;97103.91;;;27.78;70.84
3590;BME280;1809;48.470;9.226;2022-07-30T11:08:41;97102.31;;;27.92;66.12
3590;BME280;1809;48.470;9.226;2022-07-30T11:13:55;97102.28;;;28.13;70.38
3590;BME280;1809;48.470;9.226;2022-07-30T11:19:15;97104.47;;;28.50;59.05
3590;BME280;1809;48.470;9.226;2022-07-30T11:21:44;97105.59;;;28.56;57.36
3590;BME280;1809;48.470;9.226;2022-07-30T11:24:43;97095.06;;;28.40;58.48
3590;BME280;1809;48.470;9.226;2022-07-30T11:27:39;97097.31;;;28.59;60.11
3590;BME280;1809;48.470;9.226;2022-07-30T11:35:28;97091.84;;;28.52;64.73
3590;BME280;1809;48.470;9.226;2022-07-30T11:40:19;97075.53;;;28.17;64.21
3590;BME280;1809;48.470;9.226;2022-07-30T11:42:45;97078.69;;;28.12;63.71
3590;BME280;1809;48.470;9.226;2022-07-30T11:47:47;97079.97;;;28.73;62.01
3590;BME280;1809;48.470;9.226;2022-07-30T11:50:17;97070.50;;;28.77;55.26
3590;BME280;1809;48.470;9.226;2022-07-30T11:53:09;97078.53;;;29.06;55.45
3590;BME280;1809;48.470;9.226;2022-07-30T11:55:41;97075.88;;;28.99;54.72
3590;BME280;1809;48.470;9.226;2022-07-30T11:58:09;97075.38;;;29.11;55.45
3590;BME280;1809;48.470;9.226;2022-07-30T12:00:41;97080.13;;;29.07;59.70
3590;BME280;1809;48.470;9.226;2022-07-30T12:03:20;97063.28;;;29.83;51.04
3590;BME280;1809;48.470;9.226;2022-07-30T12:05:46;97065.16;;;30.23;53.47
3590;BME280;1809;48.470;9.226;2022-07-30T12:08:13;97071.44;;;29.94;48.88
3590;BME280;1809;48.470;9.226;2022-07-30T12:10:40;97074.94;;;29.60;50.04
3590;BME280;1809;48.470;9.226;2022-07-30T12:13:11;97061.63;;;29.52;51.06
3590;BME280;1809;48.470;9.226;2022-07-30T12:15:46;97059.81;;;29.38;51.11
3590;BME280;1809;48.470;9.226;2022-07-30T12:18:13;97061.69;;;29.48;52.39
3590;BME280;1809;48.470;9.226;2022-07-30T12:20:52;97061.38;;;29.39;55.78
3590;BME280;1809;48.470;9.226;2022-07-30T12:23:18;97061.00;;;29.33;54.39
3590;BME280;1809;48.470;9.226;2022-07-30T12:25:44;97067.91;;;29.08;54.09
3590;BME280;1809;48.470;9.226;2022-07-30T12:28:10;97068.63;;;28.57;52.45
3590;BME280;1809;48.470;9.226;2022-07-30T12:30:43;97062.63;;;28.79;50.87
3590;BME280;1809;48.470;9.226;2022-07-30T12:33:09;97056.41;;;28.68;51.37
3590;BME280;1809;48.470;9.226;2022-07-30T12:35:46;97061.91;;;29.20;48.81
3590;BME280;1809;48.470;9.226;2022-07-30T12:38:13;97068.84;;;28.91;47.52
3590;BME280;1809;48.470;9.226;2022-07-30T12:40:59;97067.03;;;28.70;49.62
3590;BME280;1809;48.470;9.226;2022-07-30T12:43:51;97075.06;;;28.36;54.59
3590;BME280;1809;48.470;9.226;2022-07-30T12:46:25;97064.09;;;28.29;54.88
3590;BME280;1809;48.470;9.226;2022-07-30T12:48:56;97068.50;;;28.09;56.72
3590;BME280;1809;48.470;9.226;2022-07-30T12:51:24;97064.47;;;28.31;53.87
3590;BME280;1809;48.470;9.226;2022-07-30T12:53:51;97052.72;;;28.27;52.47
3590;BME280;1809;48.470;9.226;2022-07-30T12:56:19;97054.34;;;28.83;52.06
3590;BME280;1809;48.470;9.226;2022-07-30T12:58:45;97052.13;;;29.12;52.00
3590;BME280;1809;48.470;9.226;2022-07-30T13:01:10;97051.19;;;29.32;47.48
3590;BME280;1809;48.470;9.226;2022-07-30T13:03:37;97054.66;;;28.92;50.95
3590;BME280;1809;48.470;9.226;2022-07-30T13:06:16;97055.53;;;28.78;52.82
3590;BME280;1809;48.470;9.226;2022-07-30T13:08:50;97038.47;;;28.39;51.93
3590;BME280;1809;48.470;9.226;2022-07-30T13:11:17;97043.19;;;28.42;52.05
3590;BME280;1809;48.470;9.226;2022-07-30T13:13:44;97039.19;;;28.54;54.28
3590;BME280;1809;48.470;9.226;2022-07-30T13:16:10;97037.56;;;28.60;52.45
3590;BME280;1809;48.470;9.226;2022-07-30T13:18:36;97030.47;;;28.59;57.97
3590;BME280;1809;48.470;9.226;2022-07-30T13:21:03;97025.53;;;28.95;50.13
3590;BME280;1809;48.470;9.226;2022-07-30T13:23:29;97019.47;;;29.14;46.99
3590;BME280;1809;48.470;9.226;2022-07-30T13:25:55;97022.63;;;29.09;46.76
3590;BME280;1809;48.470;9.226;2022-07-30T13:28:21;97012.97;;;28.90;47.97
3590;BME280;1809;48.470;9.226;2022-07-30T13:30:47;97016.69;;;28.69;57.59
3590;BME280;1809;48.470;9.226;2022-07-30T13:33:12;97021.66;;;28.23;54.85
3590;BME280;1809;48.470;9.226;2022-07-30T13:35:38;97024.66;;;28.50;50.08
3590;BME280;1809;48.470;9.226;2022-07-30T13:38:04;97018.56;;;28.79;47.68
3590;BME280;1809;48.470;9.226;2022-07-30T13:40:31;97019.69;;;28.89;47.08
3590;BME280;1809;48.470;9.226;2022-07-30T13:43:00;97006.38;;;28.77;46.93
3590;BME280;1809;48.470;9.226;2022-07-30T13:45:26;97013.94;;;28.69;47.98
3590;BME280;1809;48.470;9.226;2022-07-30T13:47:51;97015.63;;;29.01;49.27
3590;BME280;1809;48.470;9.226;2022-07-30T13:50:17;97010.72;;;29.26;46.95
3590;BME280;1809;48.470;9.226;2022-07-30T13:52:43;97001.59;;;29.32;45.67